Time;durP1;ratioP1;P1;durP2;ratioP2;P2;SDS_P1;SDS_P2;PMS_P1;PMS_P2;Temp;Humidity;BMP_temperature;BMP_pressure;BME280_temperature;BME280_humidity;BME280_pressure;Samples;Min_cycle;Max_cycle;Signal;HPM_P1;HPM_P2
2022/05/06 00:00:21;;;;;;;;;;;13.60;99.90;;;;;;2622218;46;19935;31
2022/05/06 00:02:55;;;;;;;;;;;13.50;99.90;;;;;;2603681;54;20017;31
2022/05/06 00:05:31;;;;;;;;;;;13.50;99.90;;;;;;2603522;54;20850;31
2022/05/06 00:08:11;;;;;;;;;;;13.50;99.90;;;;;;2603536;54;19935;31
2022/05/06 00:10:46;;;;;;;;;;;13.40;99.90;;;;;;2621887;46;20778;31
2022/05/06 00:13:21;;;;;;;;;;;13.40;99.90;;;;;;2603643;54;19934;31
2022/05/06 00:15:57;;;;;;;;;;;13.40;99.90;;;;;;2603799;54;19934;31
2022/05/06 00:18:32;;;;;;;;;;;13.40;99.90;;;;;;2603595;54;19943;31
2022/05/06 00:21:08;;;;;;;;;;;13.40;99.90;;;;;;2621828;46;19938;31
2022/05/06 00:23:45;;;;;;;;;;;13.30;99.90;;;;;;2622334;46;19997;31
2022/05/06 00:26:27;;;;;;;;;;;13.30;99.90;;;;;;2603753;54;19946;31
2022/05/06 00:29:02;;;;;;;;;;;13.30;99.90;;;;;;2622179;46;19942;31
2022/05/06 00:31:38;;;;;;;;;;;13.30;99.90;;;;;;2622285;46;19941;31
2022/05/06 00:34:16;;;;;;;;;;;13.30;99.90;;;;;;2603675;54;19934;31
2022/05/06 00:36:50;;;;;;;;;;;13.30;99.90;;;;;;2603732;54;19935;31
2022/05/06 00:39:28;;;;;;;;;;;13.30;99.90;;;;;;2621973;46;19934;31
2022/05/06 00:42:03;;;;;;;;;;;13.30;99.90;;;;;;2603597;54;19966;31
2022/05/06 00:44:39;;;;;;;;;;;13.30;99.90;;;;;;2603497;54;19935;31
2022/05/06 00:47:13;;;;;;;;;;;13.30;99.90;;;;;;2602759;54;20843;31
2022/05/06 00:49:52;;;;;;;;;;;13.20;99.90;;;;;;2603432;54;19934;31
2022/05/06 00:52:26;;;;;;;;;;;13.20;99.90;;;;;;2621809;46;19935;31
2022/05/06 00:55:05;;;;;;;;;;;13.20;99.90;;;;;;2603445;54;19935;31
2022/05/06 00:57:41;;;;;;;;;;;13.30;99.90;;;;;;2603473;54;19953;31
2022/05/06 01:00:24;;;;;;;;;;;13.30;99.90;;;;;;2603662;54;20737;31
2022/05/06 01:02:59;;;;;;;;;;;13.30;99.90;;;;;;2621980;47;19942;31
2022/05/06 01:05:33;;;;;;;;;;;13.30;99.90;;;;;;2603328;54;19935;31
2022/05/06 01:08:11;;;;;;;;;;;13.30;99.90;;;;;;2622192;47;19997;31
2022/05/06 01:10:49;;;;;;;;;;;13.30;99.90;;;;;;2603481;54;19934;31
2022/05/06 01:13:25;;;;;;;;;;;13.30;99.90;;;;;;2602537;54;20668;31
2022/05/06 01:16:01;;;;;;;;;;;13.30;99.90;;;;;;2603353;54;19935;31
2022/05/06 01:18:44;;;;;;;;;;;13.20;99.90;;;;;;2603294;54;20863;31
2022/05/06 01:21:19;;;;;;;;;;;13.30;99.90;;;;;;2701165;39;21256;31
2022/05/06 01:23:59;;;;;;;;;;;13.20;99.90;;;;;;2605910;47;19942;31
2022/05/06 01:26:51;;;;;;;;;;;13.20;99.90;;;;;;2621914;47;19935;31
2022/05/06 01:29:26;;;;;;;;;;;13.20;99.90;;;;;;2603442;54;19985;31
2022/05/06 01:32:01;;;;;;;;;;;13.20;99.90;;;;;;2603295;54;20765;31
2022/05/06 01:34:36;;;;;;;;;;;13.20;99.90;;;;;;2622528;46;19934;31
2022/05/06 01:37:12;;;;;;;;;;;13.20;99.90;;;;;;2604096;54;20002;31
2022/05/06 01:39:52;;;;;;;;;;;13.20;99.90;;;;;;2603615;54;19953;31
2022/05/06 01:42:31;;;;;;;;;;;13.20;99.90;;;;;;2604201;54;19935;31
2022/05/06 01:45:12;;;;;;;;;;;13.20;99.90;;;;;;2604286;54;19939;31
2022/05/06 01:47:54;;;;;;;;;;;13.20;99.90;;;;;;2622723;46;19935;31
2022/05/06 01:50:33;;;;;;;;;;;13.20;99.90;;;;;;2603574;54;19957;31
2022/05/06 01:53:07;;;;;;;;;;;13.20;99.90;;;;;;2604111;54;20749;31
2022/05/06 01:55:49;;;;;;;;;;;13.20;99.90;;;;;;2604333;54;19985;31
2022/05/06 01:58:35;;;;;;;;;;;13.20;99.90;;;;;;2622732;46;19941;31
2022/05/06 02:01:12;;;;;;;;;;;13.10;99.90;;;;;;2604136;54;19935;31
2022/05/06 02:06:38;;;;;;;;;;;13.10;99.90;;;;;;2622725;46;19935;31
2022/05/06 02:09:22;;;;;;;;;;;13.00;99.90;;;;;;2702776;39;20974;31
2022/05/06 02:12:17;;;;;;;;;;;13.00;99.90;;;;;;2604181;54;19998;31
2022/05/06 02:15:02;;;;;;;;;;;13.00;99.90;;;;;;2603992;54;19954;31
2022/05/06 02:17:57;;;;;;;;;;;12.90;99.90;;;;;;2603957;54;20878;31
2022/05/06 02:20:37;;;;;;;;;;;12.90;99.90;;;;;;2622638;46;19957;31
2022/05/06 02:23:37;;;;;;;;;;;12.90;99.90;;;;;;2603879;54;20713;31
2022/05/06 02:26:46;;;;;;;;;;;12.90;99.90;;;;;;2603844;54;19961;31
2022/05/06 02:29:26;;;;;;;;;;;12.80;99.90;;;;;;2622506;46;20022;31
2022/05/06 02:34:48;;;;;;;;;;;12.70;99.90;;;;;;2604213;54;20765;31
2022/05/06 02:37:27;;;;;;;;;;;12.70;99.90;;;;;;2604187;54;19934;31
2022/05/06 02:40:03;;;;;;;;;;;12.70;99.90;;;;;;2622361;46;19941;31
2022/05/06 02:42:39;;;;;;;;;;;12.70;99.90;;;;;;2622416;46;19938;31
2022/05/06 02:45:16;;;;;;;;;;;12.60;99.90;;;;;;2603804;54;20009;31
2022/05/06 02:47:56;;;;;;;;;;;12.60;99.90;;;;;;2603826;54;20771;31
2022/05/06 02:50:30;;;;;;;;;;;12.60;99.90;;;;;;2603585;54;20713;31
2022/05/06 02:53:08;;;;;;;;;;;12.50;99.90;;;;;;2622295;46;19934;31
2022/05/06 02:55:43;;;;;;;;;;;12.50;99.90;;;;;;2603826;54;19989;31
2022/05/06 02:58:19;;;;;;;;;;;12.40;99.90;;;;;;2603831;54;19938;31
2022/05/06 03:00:56;;;;;;;;;;;12.40;99.90;;;;;;2603909;54;20855;31
2022/05/06 03:03:36;;;;;;;;;;;12.40;99.90;;;;;;2603944;54;19934;31
2022/05/06 03:06:21;;;;;;;;;;;12.30;99.90;;;;;;2604025;54;19942;31
2022/05/06 03:09:00;;;;;;;;;;;12.30;99.90;;;;;;2603869;54;20756;31
2022/05/06 03:11:39;;;;;;;;;;;12.30;99.90;;;;;;2721222;39;20932;31
2022/05/06 03:14:21;;;;;;;;;;;12.20;99.90;;;;;;2603119;54;19935;31
2022/05/06 03:17:11;;;;;;;;;;;12.20;99.90;;;;;;2621802;46;19931;31
2022/05/06 03:19:49;;;;;;;;;;;12.20;99.90;;;;;;2621342;46;20017;31
2022/05/06 03:22:27;;;;;;;;;;;12.20;99.90;;;;;;2603652;54;19942;31
2022/05/06 03:25:02;;;;;;;;;;;12.10;99.90;;;;;;2622187;46;19938;31
2022/05/06 03:30:23;;;;;;;;;;;12.10;99.90;;;;;;2603857;54;20784;31
2022/05/06 03:33:00;;;;;;;;;;;12.10;99.90;;;;;;2622262;46;19935;31
2022/05/06 03:35:43;;;;;;;;;;;12.10;99.90;;;;;;2603690;54;19935;31
2022/05/06 03:38:20;;;;;;;;;;;12.10;99.90;;;;;;2603924;54;20758;31
2022/05/06 03:41:04;;;;;;;;;;;12.00;99.90;;;;;;2622216;46;19941;31
2022/05/06 03:43:40;;;;;;;;;;;12.10;99.90;;;;;;2602933;54;20816;31
2022/05/06 03:46:24;;;;;;;;;;;12.00;99.90;;;;;;2603801;54;19935;31
2022/05/06 03:49:01;;;;;;;;;;;12.00;99.90;;;;;;2603717;54;19939;31
2022/05/06 03:51:38;;;;;;;;;;;12.10;99.90;;;;;;2603012;54;20794;31
2022/05/06 03:54:19;;;;;;;;;;;12.10;99.90;;;;;;2622165;46;19942;31
2022/05/06 03:56:59;;;;;;;;;;;12.10;99.90;;;;;;2603447;54;19939;31
2022/05/06 03:59:37;;;;;;;;;;;12.10;99.90;;;;;;2621188;46;20798;31
2022/05/06 04:02:23;;;;;;;;;;;12.20;99.90;;;;;;2603699;54;19941;31
2022/05/06 04:05:00;;;;;;;;;;;12.20;99.90;;;;;;2603614;54;19946;31
2022/05/06 04:07:35;;;;;;;;;;;12.20;99.90;;;;;;2603801;54;19934;31
2022/05/06 04:10:10;;;;;;;;;;;12.20;99.90;;;;;;2622191;46;19934;31
2022/05/06 04:12:45;;;;;;;;;;;12.30;99.90;;;;;;2603641;54;19935;31
2022/05/06 04:15:23;;;;;;;;;;;12.40;99.90;;;;;;2603483;54;19981;31
2022/05/06 04:18:00;;;;;;;;;;;12.40;99.90;;;;;;2603622;54;20024;31
2022/05/06 04:23:33;;;;;;;;;;;12.60;99.90;;;;;;2603565;54;20791;31
2022/05/06 04:26:17;;;;;;;;;;;12.60;99.90;;;;;;2603531;54;19941;31
2022/05/06 04:29:02;;;;;;;;;;;12.60;99.90;;;;;;2603470;54;19989;31
2022/05/06 04:31:41;;;;;;;;;;;12.60;99.90;;;;;;2603720;54;19934;31
2022/05/06 04:34:21;;;;;;;;;;;12.60;99.90;;;;;;2622007;46;19942;31
2022/05/06 04:36:55;;;;;;;;;;;12.70;99.90;;;;;;2621951;46;20790;31
2022/05/06 04:39:33;;;;;;;;;;;12.70;99.90;;;;;;2603543;54;19989;31
2022/05/06 04:42:12;;;;;;;;;;;12.70;99.90;;;;;;2603536;54;19990;31
2022/05/06 04:44:49;;;;;;;;;;;12.70;99.90;;;;;;2603501;54;20664;31
2022/05/06 04:47:27;;;;;;;;;;;12.70;99.90;;;;;;2603538;54;19970;31
2022/05/06 04:50:04;;;;;;;;;;;12.80;99.90;;;;;;2603536;54;19935;31
2022/05/06 04:52:40;;;;;;;;;;;12.80;99.90;;;;;;2603640;54;19989;31
2022/05/06 04:55:22;;;;;;;;;;;12.80;99.90;;;;;;2622104;46;19935;31
2022/05/06 04:57:58;;;;;;;;;;;12.90;99.90;;;;;;2603492;54;19941;31
2022/05/06 05:00:35;;;;;;;;;;;12.90;99.90;;;;;;2603603;54;19935;31
2022/05/06 05:03:20;;;;;;;;;;;13.10;99.90;;;;;;2619633;47;20826;31
2022/05/06 05:05:56;;;;;;;;;;;13.10;99.90;;;;;;2603458;54;19957;31
2022/05/06 05:08:32;;;;;;;;;;;13.20;99.90;;;;;;2603904;54;20822;31
2022/05/06 05:11:05;;;;;;;;;;;13.20;99.90;;;;;;2703128;39;20967;31
2022/05/06 05:13:48;;;;;;;;;;;13.20;99.90;;;;;;2604177;54;19934;31
2022/05/06 05:16:33;;;;;;;;;;;13.30;99.90;;;;;;2604158;54;19934;31
2022/05/06 05:19:17;;;;;;;;;;;13.40;99.90;;;;;;2604418;54;20719;31
2022/05/06 05:21:59;;;;;;;;;;;13.50;99.90;;;;;;2702948;39;20885;31
2022/05/06 05:27:16;;;;;;;;;;;13.60;99.90;;;;;;2604276;54;19941;31
2022/05/06 05:29:54;;;;;;;;;;;13.60;99.90;;;;;;2604178;54;20017;31
2022/05/06 05:32:29;;;;;;;;;;;13.70;99.90;;;;;;2622545;46;20005;31
2022/05/06 05:35:11;;;;;;;;;;;13.70;99.90;;;;;;2622533;46;19934;31
2022/05/06 05:37:52;;;;;;;;;;;13.70;99.90;;;;;;2604085;54;20649;31
2022/05/06 05:40:29;;;;;;;;;;;13.80;99.90;;;;;;2604073;54;19935;31
2022/05/06 05:43:04;;;;;;;;;;;13.80;99.90;;;;;;2703008;39;20908;31
2022/05/06 05:48:28;;;;;;;;;;;14.00;99.90;;;;;;2604023;54;19931;31
2022/05/06 05:51:12;;;;;;;;;;;14.10;99.90;;;;;;2603276;54;20009;31
2022/05/06 05:53:57;;;;;;;;;;;14.10;99.90;;;;;;2604145;54;19942;31
2022/05/06 05:56:37;;;;;;;;;;;14.20;99.90;;;;;;2603995;54;19987;31
2022/05/06 05:59:16;;;;;;;;;;;14.30;99.90;;;;;;2604080;54;20109;31
2022/05/06 06:01:51;;;;;;;;;;;14.30;99.90;;;;;;2604194;54;20795;31
2022/05/06 06:04:29;;;;;;;;;;;14.30;99.90;;;;;;2604246;54;19943;31
2022/05/06 06:07:09;;;;;;;;;;;14.30;99.90;;;;;;2604381;54;19934;31
2022/05/06 06:09:49;;;;;;;;;;;14.40;99.90;;;;;;2604310;54;20066;31
2022/05/06 06:12:25;;;;;;;;;;;14.40;99.90;;;;;;2604024;54;20068;31
2022/05/06 06:15:03;;;;;;;;;;;14.50;99.90;;;;;;2604035;54;19938;31
2022/05/06 06:17:40;;;;;;;;;;;14.60;99.90;;;;;;2622637;46;19934;31
2022/05/06 06:20:18;;;;;;;;;;;14.70;99.90;;;;;;2603144;54;19942;31
2022/05/06 06:22:56;;;;;;;;;;;14.60;99.90;;;;;;2604130;54;19958;31
2022/05/06 06:25:35;;;;;;;;;;;14.70;99.90;;;;;;2622467;46;20855;31
2022/05/06 06:28:11;;;;;;;;;;;14.70;99.90;;;;;;2603746;54;19998;31
2022/05/06 06:30:46;;;;;;;;;;;14.70;99.90;;;;;;2604003;54;20170;31
2022/05/06 06:33:26;;;;;;;;;;;14.70;99.90;;;;;;2603920;54;19942;31
2022/05/06 06:36:01;;;;;;;;;;;14.80;99.90;;;;;;2604110;54;19990;31
2022/05/06 06:38:40;;;;;;;;;;;14.80;99.90;;;;;;2604153;54;19941;31
2022/05/06 06:41:20;;;;;;;;;;;14.90;99.90;;;;;;2622462;46;19938;31
2022/05/06 06:43:55;;;;;;;;;;;15.00;99.90;;;;;;2603906;54;19942;31
2022/05/06 06:46:43;;;;;;;;;;;15.00;99.90;;;;;;2622558;46;19938;31
2022/05/06 06:49:48;;;;;;;;;;;15.00;99.90;;;;;;2603979;54;19934;31
2022/05/06 06:52:43;;;;;;;;;;;15.10;99.90;;;;;;2721548;39;22116;31
2022/05/06 06:55:18;;;;;;;;;;;15.20;99.90;;;;;;2622377;46;19934;31
2022/05/06 06:57:59;;;;;;;;;;;15.30;99.90;;;;;;2622433;46;19947;31
2022/05/06 07:00:34;;;;;;;;;;;15.30;99.90;;;;;;2603463;54;20002;31
2022/05/06 07:03:10;;;;;;;;;;;15.40;99.90;;;;;;2622339;46;20010;31
2022/05/06 07:11:52;;;;;;;;;;;15.50;99.90;;;;;;2622678;46;19943;31
2022/05/06 07:12:00;;;;;;;;;;;15.60;99.90;;;;;;2603717;54;20800;31
2022/05/06 07:14:43;;;;;;;;;;;15.70;99.90;;;;;;2603997;54;20049;31
2022/05/06 07:17:18;;;;;;;;;;;15.70;99.90;;;;;;2603843;54;20734;31
2022/05/06 07:19:58;;;;;;;;;;;15.70;99.90;;;;;;2622585;46;19966;31
2022/05/06 07:22:38;;;;;;;;;;;15.70;99.90;;;;;;2604090;54;20736;31
2022/05/06 07:25:20;;;;;;;;;;;15.80;99.90;;;;;;2603140;54;19965;31
2022/05/06 07:27:57;;;;;;;;;;;16.10;99.90;;;;;;2603686;54;19934;31
2022/05/06 07:30:35;;;;;;;;;;;16.10;99.90;;;;;;2603360;54;19990;31
2022/05/06 07:33:10;;;;;;;;;;;16.20;99.90;;;;;;2603973;54;20797;31
2022/05/06 07:35:57;;;;;;;;;;;16.30;99.90;;;;;;2604017;54;20796;31
2022/05/06 07:38:33;;;;;;;;;;;16.30;99.90;;;;;;2603257;54;20836;31
2022/05/06 07:41:13;;;;;;;;;;;16.30;99.90;;;;;;2603639;54;19942;31
2022/05/06 07:43:52;;;;;;;;;;;16.30;99.90;;;;;;2622372;46;19941;31
2022/05/06 07:46:33;;;;;;;;;;;16.40;99.90;;;;;;2603697;54;19935;31
2022/05/06 07:49:08;;;;;;;;;;;16.40;99.90;;;;;;2622361;46;19935;31
2022/05/06 07:51:43;;;;;;;;;;;16.50;99.90;;;;;;2603826;54;19935;31
2022/05/06 07:54:23;;;;;;;;;;;16.50;99.90;;;;;;2622345;46;20061;31
2022/05/06 07:56:59;;;;;;;;;;;16.50;99.90;;;;;;2602806;54;19942;31
2022/05/06 07:59:39;;;;;;;;;;;16.50;99.90;;;;;;2603419;54;19942;31
2022/05/06 08:05:08;;;;;;;;;;;16.70;99.90;;;;;;2622515;46;19934;31
2022/05/06 08:07:46;;;;;;;;;;;16.80;99.90;;;;;;2701431;39;21212;31
2022/05/06 08:10:21;;;;;;;;;;;16.90;99.90;;;;;;2603136;54;19968;31
2022/05/06 08:13:03;;;;;;;;;;;17.20;99.90;;;;;;2602854;54;19949;31
2022/05/06 08:15:38;;;;;;;;;;;17.60;99.90;;;;;;2605988;46;19942;31
2022/05/06 08:18:18;;;;;;;;;;;18.10;99.90;;;;;;2602781;54;19949;31
2022/05/06 08:20:54;;;;;;;;;;;18.40;99.90;;;;;;2602538;54;19942;31
2022/05/06 08:23:33;;;;;;;;;;;18.80;99.90;;;;;;2620844;46;20738;31
2022/05/06 08:26:10;;;;;;;;;;;19.20;99.90;;;;;;2609945;46;20784;31
2022/05/06 08:28:44;;;;;;;;;;;19.40;99.90;;;;;;2603172;54;19989;31
2022/05/06 08:31:20;;;;;;;;;;;19.80;99.90;;;;;;2603690;54;20001;31
2022/05/06 08:34:03;;;;;;;;;;;20.10;99.90;;;;;;2603745;54;19998;31
2022/05/06 08:36:46;;;;;;;;;;;20.30;99.90;;;;;;2603274;54;19941;31
2022/05/06 08:39:34;;;;;;;;;;;20.60;99.90;;;;;;2603735;54;19934;31
2022/05/06 08:42:13;;;;;;;;;;;21.00;99.90;;;;;;2621563;46;20769;31
2022/05/06 08:53:13;;;;;;;;;;;21.50;99.90;;;;;;2622416;46;20710;31
2022/05/06 08:58:27;;;;;;;;;;;21.80;99.90;;;;;;2603218;54;19935;31
2022/05/06 09:01:10;;;;;;;;;;;22.00;99.90;;;;;;2610944;47;19950;31
2022/05/06 09:06:31;;;;;;;;;;;22.20;99.90;;;;;;2602852;54;20797;31
2022/05/06 09:09:09;;;;;;;;;;;22.20;99.90;;;;;;2621947;47;19935;31
2022/05/06 09:17:29;;;;;;;;;;;22.50;98.20;;;;;;2603333;54;19931;31
2022/05/06 09:20:06;;;;;;;;;;;22.70;99.80;;;;;;2602754;54;20753;31
2022/05/06 09:22:40;;;;;;;;;;;22.70;97.10;;;;;;2603270;54;19934;31
2022/05/06 09:25:27;;;;;;;;;;;22.70;96.10;;;;;;2603379;54;20744;31
2022/05/06 09:28:04;;;;;;;;;;;22.80;97.00;;;;;;2621947;47;19934;31
2022/05/06 09:30:44;;;;;;;;;;;22.90;96.60;;;;;;2603398;54;20795;31
2022/05/06 09:33:28;;;;;;;;;;;22.90;95.90;;;;;;2602517;54;19942;31
2022/05/06 09:36:11;;;;;;;;;;;22.90;95.40;;;;;;2603294;54;20005;31
2022/05/06 09:39:03;;;;;;;;;;;22.70;95.20;;;;;;2603704;54;19943;31
2022/05/06 09:41:44;;;;;;;;;;;22.70;95.70;;;;;;2603423;54;19934;31
2022/05/06 09:49:45;;;;;;;;;;;22.60;93.70;;;;;;2603283;54;20769;31
2022/05/06 09:52:20;;;;;;;;;;;22.70;93.50;;;;;;2603310;54;19961;31
2022/05/06 09:54:53;;;;;;;;;;;22.80;93.50;;;;;;2702759;39;22083;31
2022/05/06 10:00:14;;;;;;;;;;;23.00;93.50;;;;;;2622299;46;21311;31
2022/05/06 10:02:57;;;;;;;;;;;23.40;93.30;;;;;;2603181;54;20676;31
2022/05/06 10:05:38;;;;;;;;;;;23.40;94.00;;;;;;2609245;46;20764;31
2022/05/06 10:08:16;;;;;;;;;;;23.50;93.30;;;;;;2702967;39;20998;31
2022/05/06 10:11:12;;;;;;;;;;;23.40;92.90;;;;;;2604062;54;19942;31
2022/05/06 10:13:49;;;;;;;;;;;23.40;93.20;;;;;;2604034;54;19935;31
2022/05/06 10:16:33;;;;;;;;;;;23.50;92.00;;;;;;2604184;54;20752;31
2022/05/06 10:19:11;;;;;;;;;;;23.40;93.40;;;;;;2622368;46;19942;31
2022/05/06 10:21:50;;;;;;;;;;;23.40;91.70;;;;;;2604034;54;20796;31
2022/05/06 10:24:27;;;;;;;;;;;23.50;92.30;;;;;;2622612;46;19935;31
2022/05/06 10:27:04;;;;;;;;;;;23.40;91.40;;;;;;2603460;54;19994;31
2022/05/06 10:33:01;;;;;;;;;;;23.40;91.50;;;;;;2604078;54;19934;31
2022/05/06 10:35:39;;;;;;;;;;;23.40;92.30;;;;;;2604086;54;19938;31
2022/05/06 10:38:36;;;;;;;;;;;23.40;90.10;;;;;;2603682;54;19947;31
2022/05/06 10:41:14;;;;;;;;;;;23.40;92.00;;;;;;2603965;54;19973;31
2022/05/06 10:43:53;;;;;;;;;;;23.40;93.00;;;;;;2603128;54;20868;31
2022/05/06 10:49:21;;;;;;;;;;;23.20;91.30;;;;;;2603665;54;19934;31
2022/05/06 10:52:04;;;;;;;;;;;23.10;90.10;;;;;;2622518;46;19942;31
2022/05/06 10:54:42;;;;;;;;;;;23.10;90.40;;;;;;2603212;54;19946;31
2022/05/06 10:57:20;;;;;;;;;;;23.20;91.60;;;;;;2603135;54;19934;31
2022/05/06 10:59:57;;;;;;;;;;;23.20;91.80;;;;;;2622632;46;19949;31
2022/05/06 11:02:35;;;;;;;;;;;23.30;91.10;;;;;;2604139;54;20753;31
2022/05/06 11:05:11;;;;;;;;;;;23.30;90.60;;;;;;2621867;46;20000;31
2022/05/06 11:07:47;;;;;;;;;;;23.30;91.10;;;;;;2604075;54;20761;31
2022/05/06 11:10:22;;;;;;;;;;;23.10;90.50;;;;;;2603913;54;20826;31
2022/05/06 11:13:01;;;;;;;;;;;23.10;90.00;;;;;;2603889;54;20808;31
2022/05/06 11:15:40;;;;;;;;;;;23.10;90.30;;;;;;2622503;46;20017;31
2022/05/06 11:18:16;;;;;;;;;;;23.00;89.20;;;;;;2603865;54;19935;31
2022/05/06 11:20:50;;;;;;;;;;;23.00;90.00;;;;;;2603847;54;20746;31
2022/05/06 11:23:30;;;;;;;;;;;22.90;90.00;;;;;;2603792;54;20005;31
2022/05/06 11:26:13;;;;;;;;;;;22.70;88.70;;;;;;2603814;54;20799;31
2022/05/06 11:29:02;;;;;;;;;;;22.70;90.10;;;;;;2622603;46;19935;31
2022/05/06 11:31:48;;;;;;;;;;;22.60;89.90;;;;;;2603740;54;19935;31
2022/05/06 11:34:22;;;;;;;;;;;22.60;89.30;;;;;;2622686;46;20792;31
2022/05/06 11:36:56;;;;;;;;;;;22.70;90.50;;;;;;2622349;46;19935;31
2022/05/06 11:39:34;;;;;;;;;;;22.60;91.00;;;;;;2603802;54;19947;31
2022/05/06 11:42:12;;;;;;;;;;;22.60;91.60;;;;;;2604072;54;19934;31
2022/05/06 11:47:38;;;;;;;;;;;22.60;90.40;;;;;;2603787;54;20016;31
2022/05/06 11:50:16;;;;;;;;;;;22.50;90.20;;;;;;2603954;54;20743;31
2022/05/06 11:52:50;;;;;;;;;;;22.40;88.30;;;;;;2702635;39;20969;31
2022/05/06 11:55:24;;;;;;;;;;;22.40;89.30;;;;;;2603642;54;19997;31
2022/05/06 11:58:10;;;;;;;;;;;22.40;90.50;;;;;;2621967;46;19930;31
2022/05/06 12:00:44;;;;;;;;;;;22.40;90.90;;;;;;2603630;54;20013;31
2022/05/06 12:03:21;;;;;;;;;;;22.40;90.70;;;;;;2603702;54;20712;31
2022/05/06 12:06:03;;;;;;;;;;;22.40;88.50;;;;;;2773703;31;21197;31
2022/05/06 12:08:39;;;;;;;;;;;22.30;88.60;;;;;;2602875;54;20810;31
2022/05/06 12:11:14;;;;;;;;;;;22.20;89.70;;;;;;2603731;54;19978;31
2022/05/06 12:13:49;;;;;;;;;;;22.10;90.50;;;;;;2603770;54;20780;31
2022/05/06 12:16:23;;;;;;;;;;;22.10;90.00;;;;;;2622265;46;19935;31
2022/05/06 12:19:01;;;;;;;;;;;22.10;90.50;;;;;;2603719;54;20774;31
2022/05/06 12:21:35;;;;;;;;;;;22.10;89.20;;;;;;2603789;54;19941;31
2022/05/06 12:24:13;;;;;;;;;;;22.10;88.40;;;;;;2603542;54;19935;31
2022/05/06 12:26:56;;;;;;;;;;;22.10;91.10;;;;;;2622236;46;19935;31
2022/05/06 12:29:30;;;;;;;;;;;22.20;90.80;;;;;;2603657;54;20671;31
2022/05/06 12:32:07;;;;;;;;;;;22.20;89.10;;;;;;2621981;46;20608;31
2022/05/06 12:34:46;;;;;;;;;;;22.20;87.20;;;;;;2603801;54;20025;31
2022/05/06 12:37:22;;;;;;;;;;;22.20;88.20;;;;;;2603481;54;20769;31
2022/05/06 12:39:57;;;;;;;;;;;22.20;89.00;;;;;;2603638;54;19942;31
2022/05/06 12:42:34;;;;;;;;;;;22.20;89.30;;;;;;2603869;54;20018;31
2022/05/06 12:45:30;;;;;;;;;;;22.10;90.40;;;;;;2603568;54;20751;31
2022/05/06 12:50:57;;;;;;;;;;;22.10;89.90;;;;;;2603863;54;20737;31
2022/05/06 12:53:33;;;;;;;;;;;22.00;91.20;;;;;;2622013;46;20729;31
2022/05/06 12:56:13;;;;;;;;;;;22.00;90.90;;;;;;2603613;54;19965;31
2022/05/06 12:59:09;;;;;;;;;;;21.90;90.80;;;;;;2621531;46;20660;31
2022/05/06 13:01:44;;;;;;;;;;;21.90;90.70;;;;;;2603762;54;19942;31
2022/05/06 13:04:27;;;;;;;;;;;21.70;91.10;;;;;;2621953;47;19935;31
2022/05/06 13:07:04;;;;;;;;;;;21.70;90.20;;;;;;2622031;47;19934;31
2022/05/06 13:09:37;;;;;;;;;;;21.60;91.10;;;;;;2603539;54;19939;31
2022/05/06 13:12:12;;;;;;;;;;;21.60;91.00;;;;;;2603719;54;20764;31
2022/05/06 13:14:51;;;;;;;;;;;21.60;91.50;;;;;;2621975;47;19935;31
2022/05/06 13:17:26;;;;;;;;;;;21.70;91.00;;;;;;2622331;47;19935;31
2022/05/06 13:20:02;;;;;;;;;;;21.70;90.30;;;;;;2603379;54;20867;31
2022/05/06 13:22:46;;;;;;;;;;;21.70;91.50;;;;;;2603842;54;19935;31
2022/05/06 13:25:20;;;;;;;;;;;21.60;90.90;;;;;;2603649;54;20001;31
2022/05/06 13:27:56;;;;;;;;;;;21.60;91.10;;;;;;2603319;54;19935;31
2022/05/06 13:30:33;;;;;;;;;;;21.60;90.10;;;;;;2622438;46;20008;31
2022/05/06 13:33:10;;;;;;;;;;;21.60;90.30;;;;;;2622841;46;19943;31
2022/05/06 13:35:45;;;;;;;;;;;21.50;91.20;;;;;;2604141;54;19935;31
2022/05/06 13:38:33;;;;;;;;;;;21.50;92.10;;;;;;2622912;46;19989;31
2022/05/06 13:41:12;;;;;;;;;;;21.50;92.00;;;;;;2604366;54;19986;31
2022/05/06 13:43:46;;;;;;;;;;;21.50;91.50;;;;;;2603969;54;19934;31
2022/05/06 13:46:20;;;;;;;;;;;21.40;91.90;;;;;;2604145;54;20005;31
2022/05/06 13:48:57;;;;;;;;;;;21.40;92.00;;;;;;2622296;46;20779;31
2022/05/06 13:51:31;;;;;;;;;;;21.40;92.30;;;;;;2604053;54;19935;31
2022/05/06 13:54:12;;;;;;;;;;;21.50;91.40;;;;;;2604242;54;20005;31
2022/05/06 13:59:38;;;;;;;;;;;21.50;91.20;;;;;;2603809;54;19957;31
2022/05/06 14:02:10;;;;;;;;;;;21.50;90.80;;;;;;2604098;54;20053;31
2022/05/06 14:04:48;;;;;;;;;;;21.30;89.90;;;;;;2622134;46;20757;31
2022/05/06 14:07:37;;;;;;;;;;;21.30;90.60;;;;;;2604225;54;19938;31
2022/05/06 14:10:15;;;;;;;;;;;21.40;91.70;;;;;;2622628;46;20783;31
2022/05/06 14:12:49;;;;;;;;;;;21.40;91.00;;;;;;2622775;46;20025;31
2022/05/06 14:15:30;;;;;;;;;;;21.50;91.10;;;;;;2604143;54;20862;31
2022/05/06 14:18:09;;;;;;;;;;;21.50;91.10;;;;;;2622365;46;20009;31
2022/05/06 14:20:43;;;;;;;;;;;21.50;92.30;;;;;;2604175;54;19996;31
2022/05/06 14:23:17;;;;;;;;;;;21.50;91.20;;;;;;2604408;54;19946;31
2022/05/06 14:25:54;;;;;;;;;;;21.40;90.70;;;;;;2622512;46;19989;31
2022/05/06 14:28:28;;;;;;;;;;;21.30;90.60;;;;;;2622679;46;20069;31
2022/05/06 14:31:07;;;;;;;;;;;21.20;91.00;;;;;;2604057;54;19935;31
2022/05/06 14:33:41;;;;;;;;;;;21.20;90.40;;;;;;2603847;54;19986;31
2022/05/06 14:36:19;;;;;;;;;;;21.10;90.40;;;;;;2622636;46;19942;31
2022/05/06 14:38:53;;;;;;;;;;;21.00;90.20;;;;;;2702258;39;21269;31
2022/05/06 14:41:34;;;;;;;;;;;21.00;90.70;;;;;;2622673;47;19998;31
2022/05/06 14:44:08;;;;;;;;;;;21.00;91.50;;;;;;2622452;46;19950;31
2022/05/06 14:46:42;;;;;;;;;;;21.00;90.50;;;;;;2604163;54;19957;31
2022/05/06 14:49:16;;;;;;;;;;;21.00;90.00;;;;;;2622799;46;20763;31
2022/05/06 14:51:53;;;;;;;;;;;20.90;89.80;;;;;;2622661;46;20006;31
2022/05/06 14:54:27;;;;;;;;;;;20.90;90.60;;;;;;2604139;54;19934;31
2022/05/06 14:57:07;;;;;;;;;;;20.90;90.60;;;;;;2603890;54;19935;31
2022/05/06 14:59:44;;;;;;;;;;;20.90;91.90;;;;;;2622427;46;19938;31
2022/05/06 15:02:18;;;;;;;;;;;20.90;91.40;;;;;;2622230;46;19941;31
2022/05/06 15:04:52;;;;;;;;;;;20.80;91.40;;;;;;2603838;54;20733;31
2022/05/06 15:07:27;;;;;;;;;;;20.90;91.10;;;;;;2622521;46;20021;31
2022/05/06 15:10:04;;;;;;;;;;;20.80;91.00;;;;;;2604076;54;19942;31
2022/05/06 15:12:38;;;;;;;;;;;20.90;91.10;;;;;;2603941;54;19946;31
2022/05/06 15:15:16;;;;;;;;;;;20.80;90.10;;;;;;2622449;46;20721;31
2022/05/06 15:17:52;;;;;;;;;;;20.80;90.10;;;;;;2603971;54;20746;31
2022/05/06 15:20:26;;;;;;;;;;;20.70;90.70;;;;;;2603919;54;19990;31
2022/05/06 15:23:06;;;;;;;;;;;20.70;90.50;;;;;;2603874;54;20769;31
2022/05/06 15:25:45;;;;;;;;;;;20.70;90.40;;;;;;2604063;54;20756;31
2022/05/06 15:28:19;;;;;;;;;;;20.60;91.80;;;;;;2603553;54;19934;31
2022/05/06 15:30:56;;;;;;;;;;;20.50;91.30;;;;;;2603927;54;19939;31
2022/05/06 15:33:30;;;;;;;;;;;20.50;90.80;;;;;;2603956;54;19938;31
2022/05/06 15:36:08;;;;;;;;;;;20.50;91.20;;;;;;2622290;46;20016;31
2022/05/06 15:38:41;;;;;;;;;;;20.60;91.60;;;;;;2603749;54;19935;31
2022/05/06 15:41:15;;;;;;;;;;;20.60;90.60;;;;;;2622258;46;20791;31
2022/05/06 15:43:50;;;;;;;;;;;20.60;90.50;;;;;;2604032;54;19941;31
2022/05/06 15:46:27;;;;;;;;;;;20.50;90.80;;;;;;2603583;54;19960;31
2022/05/06 15:49:01;;;;;;;;;;;20.50;90.70;;;;;;2603715;54;20753;31
2022/05/06 15:51:35;;;;;;;;;;;20.40;90.50;;;;;;2603296;54;19974;31
2022/05/06 15:54:12;;;;;;;;;;;20.40;91.50;;;;;;2603992;54;19985;31
2022/05/06 15:56:47;;;;;;;;;;;20.30;90.70;;;;;;2622332;46;19935;31
2022/05/06 15:59:22;;;;;;;;;;;20.20;92.70;;;;;;2603689;54;19993;31
2022/05/06 16:02:00;;;;;;;;;;;20.20;93.90;;;;;;2603297;54;19941;31
2022/05/06 16:04:35;;;;;;;;;;;20.30;93.40;;;;;;2622330;46;19942;31
2022/05/06 16:07:15;;;;;;;;;;;20.30;93.20;;;;;;2603924;54;20759;31
2022/05/06 16:09:54;;;;;;;;;;;20.40;93.70;;;;;;2608021;46;20667;31
2022/05/06 16:12:30;;;;;;;;;;;20.50;93.70;;;;;;2603651;54;19946;31
2022/05/06 16:15:22;;;;;;;;;;;20.50;92.60;;;;;;2603736;54;19935;31
2022/05/06 16:18:02;;;;;;;;;;;20.60;92.90;;;;;;2603759;54;19935;31
2022/05/06 16:20:42;;;;;;;;;;;20.60;90.70;;;;;;2603563;54;19942;31
2022/05/06 16:23:18;;;;;;;;;;;20.60;90.70;;;;;;2622335;46;20028;31
2022/05/06 16:25:54;;;;;;;;;;;20.60;90.90;;;;;;2603812;54;19985;31
2022/05/06 16:28:32;;;;;;;;;;;20.60;90.90;;;;;;2614859;46;20839;31
2022/05/06 16:31:09;;;;;;;;;;;20.60;91.10;;;;;;2622317;46;20816;31
2022/05/06 16:39:20;;;;;;;;;;;20.30;90.10;;;;;;2622180;46;19941;31
2022/05/06 16:41:54;;;;;;;;;;;20.20;89.00;;;;;;2603415;54;19935;31
2022/05/06 16:44:28;;;;;;;;;;;20.10;90.00;;;;;;2621579;46;19988;31
2022/05/06 16:47:02;;;;;;;;;;;20.00;90.10;;;;;;2603829;54;19982;31